NWS Home NWS Lubbock West Texas Mesonet Three hour changes as of 0218 AM, Sun Jan 19, 2020

Latest   N   C   S   Daily Sum   3hrΔ   24hrΔ   Soil Data 
Site Map   24hr Precip   72hr Precip   Google Plot


Station Time of Last Temp Now Temp 3h ago Delta-T Dewpoint Now Dewpoint 3hr ago Delta-Td 3hr Press Change (mB)
Reese Center  02:10 AM 30.6 33.8 -3.2 20.9 22.8 -1.9 0.4
Abernathy  02:10 AM 27.8 29 -1.2 21.8 24.2 -2.4 0.2
Plainview  02:10 AM 28.5 30.9 -2.4 21.6 24.1 -2.5 0.3
Tahoka  02:10 AM 29.8 32.9 -3.1 19.9 22.4 -2.5 0.1
Slaton  02:10 AM 30.3 32.6 -2.3 21.8 23.8 -2 0.4
Levelland  02:10 AM 28.1 32.6 -4.5 23 23.5 -0.4 0.2
Roaring Springs  02:10 AM 31.4 35.3 -3.9 21.4 22.4 -1 0
Floydada  02:10 AM 23.8 26.9 -3.1 18.2 20.1 -1.8 0.1
Ralls  02:10 AM 29.4 31.3 -1.9 20.2 22.1 -1.9 0.2
Brownfield  02:10 AM 27.5 29.5 -2 22.7 24.3 -1.5 0.1
Muleshoe  02:10 AM 26.2 26.7 -0.5 21.5 21.8 -0.3 0.3
Morton  02:10 AM 25.5 30 -4.5 19.1 19.9 -0.9 0.1
O'Donnell  02:10 AM 30.2 31.3 -1.1 24.4 25.8 -1.4 0.1
Seagraves  02:10 AM 28.9 32 -3.1 23.3 25.2 -1.9 -0.2
Amherst  02:10 AM 24.1 27.8 -3.7 19.8 20.9 -1.2 0.2
Plains  02:10 AM 26.9 29.5 -2.7 22.3 23.9 -1.7 -0.1
Lamesa  02:10 AM 29.9 32.7 -2.8 23.9 26.4 -2.4 0.2
Hart  02:10 AM 22.2 24.7 -2.5 18.8 20.2 -1.3 0.4
Friona  02:10 AM 25.1 25.7 -0.6 21.5 21.1 0.4 0.3
Dimmitt  02:10 AM 23 26.4 -3.4 19.2 19.3 -0.1 0.4
Tulia  02:10 AM 24.9 27.2 -2.3 19.4 20 -0.6 0.3
Silverton  02:10 AM 26.7 25.5 1.2 20 19.7 0.3 0.1
Post  02:10 AM 31.7 35.1 -3.4 21.3 22.3 -1 0.1
Seminole  02:10 AM 27.9 33 -5.1 23.1 25.7 -2.6 0
Gail  02:10 AM 29.6 33.4 -3.8 20.8 22.4 -1.6 0.4
White River Lake  02:10 AM 30 32.7 -2.7 19.7 20.4 -0.7 0.1
Graham  02:10 AM 33 35.3 -2.3 20.6 23.1 -2.5 0
Sundown  02:10 AM 25.7 27.7 -1.9 21.2 21.6 -0.4 -0.1
Anton  02:10 AM 24.4 28.8 -4.4 20.4 23.4 -3 0.3
Fluvanna  02:10 AM 30.8 31.7 -0.9 21.6 22.8 -1.2 0.1
Spur  02:10 AM 27.7 30.1 -2.3 24.3 26.9 -2.6 0.1
Northwest Lubbock  02:10 AM 32.4 35.4 -3 20.4 21.7 -1.4 0.4
Guthrie  02:10 AM 29.6 31.5 -1.9 20.4 20.7 -0.3 -0.1
Clarendon  02:10 AM 27 24.6 2.4 20.5 19.8 0.7 0.3
Paducah  02:10 AM 34.2 35.7 -1.5 20.3 22 -1.6 0
Snyder  02:10 AM 33.2 35.4 -2.2 24.1 25 -0.9 0.4
Memphis  02:10 AM 26.8 29.5 -2.7 23.2 24.2 -0.9 0.2
Jayton  02:10 AM 31.7 34.3 -2.6 23.5 23.2 0.3 0.2
Pampa  02:10 AM 26.3 25.5 0.8 17.7 17.3 0.4 0
Aspermont  02:10 AM 25.6 28.7 -3.1 23.5 25 -1.5 0.1
Hereford  02:10 AM 25.9 29.1 -3.2 20.3 19.1 1.2 0.3
Goodlett  02:10 AM 31.6 35.2 -3.6 22.2 22.5 -0.3 0.3
McLean  02:10 AM 29.4 31.5 -2 18.8 17.1 1.7 0.1
Denver City  02:10 AM 26.2 27.8 -1.5 22.6 23.3 -0.6 -0.1
Lake Alan Henry  02:10 AM 31.8 34.5 -2.7 21.8 23.6 -1.8 0.2
Wolfforth  02:10 AM 27.2 29.3 -2.1 22.4 23.8 -1.4 0.3
Andrews  02:10 AM 29.7 34.9 -5.2 24.1 27.4 -3.3 0.1
Turkey  02:10 AM 30 34.7 -4.7 23.2 23.6 -0.4 0.1
Childress  02:10 AM 32 34.4 -2.4 20.6 22.4 -1.7 0.2
Tatum  02:10 AM 23 26.6 -3.5 19.6 20.9 -1.3 0
Northfield  02:10 AM 28.9 35 -6.2 20.8 20.2 0.7 0.2
Dora  02:10 AM 26 29.1 -3.1 20.4 20.5 -0 -0.2
Northwest San Angelo  02:10 AM 28.6 31.9 -3.3 23.4 25.9 -2.6 1
Saint Lawrence  02:10 AM 31.2 32.4 -1.2 25.9 27.6 -1.8 0.6
Haskell  02:10 AM 31.1 32.1 -1 27.3 28.6 -1.3 0.2
Wall  02:10 AM 32.3 34.5 -2.3 27.7 30.3 -2.6 1
Seymour  02:10 AM 27.7 33.1 -5.4 25 26.4 -1.3 0.6
Knox City  02:10 AM 27.9 31.4 -3.5 26.7 28.5 -1.8 0.3
Guadalupe Mtns Park  02:10 AM 31.2 36.5 -5.3 25.9 22.7 3.2 0
Caprock Canyons   02:10 AM 31.3 32.8 -1.4 21.6 23 -1.4 0.2
Odell  02:10 AM 28.2 33.5 -5.3 22.9 21.4 1.5 0.2
Coyanosa  02:10 AM 34 39.6 -5.6 31.2 32.1 -0.9 0.3
Big Lake  02:10 AM 34.2 36.8 -2.6 25.3 27.5 -2.2 0.4
Junction  02:10 AM 31 40.4 -9.3 27.1 30.4 -3.3 0.6
Hobbs  02:10 AM 32.3 35.8 -3.5 22.7 23.8 -1.1 -0.1
Canadian  02:10 AM 29.5 28.7 0.8 17.6 15.7 1.9 0.2
Palo Duro Canyon State Park Rim  02:10 AM 27.1 30.3 -3.2 17.1 13.1 4 0.3
Bootleg  02:10 AM 26.5 25.6 0.9 20.4 18.5 1.9 0.2
Sterling City  02:10 AM 23.2 24.9 -1.7 22.6 24.6 -2 0.7
Mertzon  02:10 AM 24.9 29.8 -5 24.8 28.9 -4.1 0.8
Persimmon Gap  02:10 AM 43.6 48.6 -5 32 31.9 0.1 0.1
Weinert  02:10 AM 31.1 36.6 -5.5 21.9 23.1 -1.2 0.4
Claude 12 Southwest  02:05 AM 28.8 29.9 -1.1 18.6 17.5 1.1 0.4
Amarillo 7 South Southeast  02:10 AM 18.7 26.6 -7.9 14.8 14.8 0.1 0.3
Umbarger  02:10 AM 24.5 26.7 -2.2 19.6 18.8 0.8 0.3
Lomax  02:10 AM 32.6 34.2 -1.6 24.2 26.7 -2.4 0.6
Amarillo 9 North Northeast  02:10 AM 27 27 0 19.5 15.9 3.6 0.1
Aiken  02:10 AM 24.7 29.3 -4.6 21.4 23 -1.5 0.2
Sweetwater  02:10 AM 29.2 31.9 -2.7 22.8 24.2 -1.4 0.8
Dozier  02:10 AM 27.8 31.6 -3.9 20.4 19.6 0.8 0.2
Amarillo 15 North Northwest  02:10 AM 26.9 26.7 0.3 18.4 15.3 3.1 0.3
Menard  02:10 AM 30.2 36.9 -6.7 25.6 27.1 -1.5 0.9
Tarzan  02:10 AM 30.2 33.2 -3 26 28.1 -2.1 0.3
Goodnight  02:10 AM 26.9 28.8 -1.8 20.7 19.8 0.8 0.2
Boys Ranch   02:10 AM 25.1 25 0.2 19.2 19 0.3 0.2
Fort McKavett  02:10 AM 31.8 37 -5.2 25.7 26.5 -0.8 0.5
Fort Chadbourne  02:10 AM 31.7 36.9 -5.2 23.1 23.5 -0.4 1.1
Palo Duro Canyon State Park Floor  02:10 AM 22.9 25.4 -2.5 17.7 16.8 1 0.4
Fort Lancaster  02:10 AM 39.3 42.3 -3 28.1 30.6 -2.5 0.7
Dell City 1N  02:10 AM 34.3 42.1 -7.8 25.1 26.3 -1.2 0.5
Clyde  02:10 AM 31.6 35.2 -3.6 21.1 21.2 -0.1 0.3
Snyder SSW  02:10 AM 31.7 33.8 -2.1 23.3 24 -0.7 0.4
Panhandle  02:10 AM 21.1 26 -4.9 17 16.2 0.8 0.2
Vigo Park  02:10 AM 23.9 26 -2.1 18.4 19.7 -1.3 0.2
Welch  02:10 AM 32 31.5 0.4 23.9 26.7 -2.8 0.1
Throckmorton  02:10 AM 33 33.9 -1 25.3 27.6 -2.3 0.4
Sierra Blanca  02:10 AM 38.6 41.6 -3.1 24.3 24.7 -0.4 -0.3
Fort Lewis CO  02:10 AM 18.4 14.8 3.5 10.1 7.8 2.3 0
New Home  02:10 AM 28.2 32 -3.8 22.6 24.3 -1.8 0.1
McCamey  02:10 AM 37.6 40.8 -3.3 28 31 -3.1 0.4
Stamford  02:10 AM 31.3 33.7 -2.4 26.9 28.5 -1.6 0
Crowell  02:10 AM 34.1 34.4 -0.3 23.7 26.4 -2.6 0.3
Stinnett  02:10 AM 27.9 30.8 -2.9 17.7 14.8 2.9 0.3
Colorado City  02:10 AM 29.7 29.4 0.3 23.4 24.9 -1.5 0.7
Happy  02:10 AM 21.7 24.7 -3 18.1 18.4 -0.3 0.2
Endee  02:10 AM 28.1 27.5 0.6 22.1 21 1.1 0.1
JA Ranch  02:10 AM 18.3 21.2 -2.8 15.5 17.4 -1.9 0.3
Adrian  02:10 AM 26.1 30.6 -4.5 20.9 20 0.9 0.1
Lesley  02:10 AM 32 33.1 -1.1 22.2 23.2 -1.1 0.6
Earth  02:10 AM 21.9 26.2 -4.4 18.3 19.1 -0.7 0.2
Van Horn  02:10 AM 37 42.2 -5.2 27 25 2 0.1
Rotan  02:10 AM 33.4 36.1 -2.7 24 25.9 -1.8 0.5
Fritch  02:10 AM 29 30.5 -1.5 19 16.1 2.9 0.1
Estelline  02:10 AM 30.4 32.2 -1.8 21.7 22.7 -1 0.3
Crane  02:10 AM 34.5 35.8 -1.3 28.5 31.9 -3.5 0.3
Hackberry  02:10 AM 32.9 33.9 -1 20.3 21.9 -1.6 0.2
Romero 11SSW  02:10 AM 28.9 29.6 -0.8 19.4 19.5 -0.2 0.6
Palo Duro Reservoir 1NW  02:10 AM 29.4 31.7 -2.3 18.4 17.1 1.3 0.4
South Plains 3ENE  02:10 AM 27.3 25.6 1.6 20.2 20.8 -0.6 0.2
Lake McClellan 2NW  02:10 AM 29.5 31.6 -2.1 18.2 15.9 2.3 0.1
Segovia 7SSW  02:10 AM 36.1 39.6 -3.5 28.4 30.9 -2.5 0.4
Castolon 1NW BBNP  02:10 AM 50.7 56 -5.3 33.9 32.3 1.7 0.7
Smyer  02:10 AM 29 31.5 -2.5 22.1 23.8 -1.7 0.3
Doole 3WNW  02:10 AM 33.5 36.3 -2.8 23.9 25.2 -1.3 1
Stratford  02:10 AM 28.9 29.3 -0.4 20 18.5 1.5 0.5
Truscott  02:10 AM 31.4 32.6 -1.2 26 26.6 -0.6 0.3
Hefner  02:10 AM 35 34.4 0.5 24.5 26.3 -1.8 0.4
Kent I10-I20 Split  02:10 AM 36.2 40.8 -4.6 30.3 29.2 1.1 -0.4
Olton  02:10 AM 22.7 25.8 -3.1 18.6 20.9 -2.4 0.3

West Texas Mesonet Home   Site Map/Menu  NWS Lubbock Soil Data  Daily Summary Page  24hr Precip  72hr Precip  Google Plot